sensor_id;sensor_type;location;lat;lon;timestamp;pressure;altitude;pressure_sealevel;temperature;humidity
62946;BME280;52164;52.212;-1.010;2023-06-01T00:01:02;101814.95;;;11.12;71.12
62946;BME280;52164;52.212;-1.010;2023-06-01T00:03:29;101814.19;;;11.09;70.94
62946;BME280;52164;52.212;-1.010;2023-06-01T00:05:56;101812.19;;;11.07;70.80
62946;BME280;52164;52.212;-1.010;2023-06-01T00:08:22;101811.42;;;11.05;70.95
62946;BME280;52164;52.212;-1.010;2023-06-01T00:10:48;101806.02;;;11.02;70.94
62946;BME280;52164;52.212;-1.010;2023-06-01T00:13:13;101809.89;;;10.99;70.67
62946;BME280;52164;52.212;-1.010;2023-06-01T00:15:38;101810.75;;;10.97;70.82
62946;BME280;52164;52.212;-1.010;2023-06-01T00:18:04;101810.15;;;10.94;70.95
62946;BME280;52164;52.212;-1.010;2023-06-01T00:20:30;101809.20;;;10.91;70.89
62946;BME280;52164;52.212;-1.010;2023-06-01T00:22:57;101810.73;;;10.87;70.75
62946;BME280;52164;52.212;-1.010;2023-06-01T00:25:24;101811.02;;;10.84;70.72
62946;BME280;52164;52.212;-1.010;2023-06-01T00:27:50;101808.42;;;10.80;70.87
62946;BME280;52164;52.212;-1.010;2023-06-01T00:30:15;101809.63;;;10.76;70.73
62946;BME280;52164;52.212;-1.010;2023-06-01T00:32:40;101809.57;;;10.73;70.75
62946;BME280;52164;52.212;-1.010;2023-06-01T00:35:08;101811.85;;;10.71;70.87
62946;BME280;52164;52.212;-1.010;2023-06-01T00:37:34;101810.20;;;10.69;70.98
62946;BME280;52164;52.212;-1.010;2023-06-01T00:39:59;101810.36;;;10.68;71.08
62946;BME280;52164;52.212;-1.010;2023-06-01T00:42:24;101812.61;;;10.66;71.24
62946;BME280;52164;52.212;-1.010;2023-06-01T00:44:50;101810.64;;;10.65;71.19
62946;BME280;52164;52.212;-1.010;2023-06-01T00:47:15;101815.09;;;10.64;71.17
62946;BME280;52164;52.212;-1.010;2023-06-01T00:49:41;101809.00;;;10.63;71.17
62946;BME280;52164;52.212;-1.010;2023-06-01T00:52:06;101815.93;;;10.61;71.14
62946;BME280;52164;52.212;-1.010;2023-06-01T00:54:31;101816.06;;;10.60;71.38
62946;BME280;52164;52.212;-1.010;2023-06-01T00:56:57;101815.85;;;10.57;70.97
62946;BME280;52164;52.212;-1.010;2023-06-01T00:59:22;101813.67;;;10.55;71.32
62946;BME280;52164;52.212;-1.010;2023-06-01T01:01:48;101814.76;;;10.56;71.46
62946;BME280;52164;52.212;-1.010;2023-06-01T01:04:13;101813.55;;;10.59;71.57
62946;BME280;52164;52.212;-1.010;2023-06-01T01:07:15;101809.89;;;10.63;71.64
62946;BME280;52164;52.212;-1.010;2023-06-01T01:09:39;101806.20;;;10.65;71.47
62946;BME280;52164;52.212;-1.010;2023-06-01T01:12:20;101803.60;;;10.70;71.61
62946;BME280;52164;52.212;-1.010;2023-06-01T01:14:51;101808.50;;;10.73;71.55
62946;BME280;52164;52.212;-1.010;2023-06-01T01:17:37;101807.87;;;10.78;71.64
62946;BME280;52164;52.212;-1.010;2023-06-01T01:20:10;101803.53;;;10.84;71.44
62946;BME280;52164;52.212;-1.010;2023-06-01T01:25:39;101800.61;;;10.90;71.23
62946;BME280;52164;52.212;-1.010;2023-06-01T01:29:58;101802.60;;;10.91;71.26
62946;BME280;52164;52.212;-1.010;2023-06-01T01:30:35;101799.57;;;10.92;71.03
62946;BME280;52164;52.212;-1.010;2023-06-01T01:33:01;101800.13;;;10.93;71.06
62946;BME280;52164;52.212;-1.010;2023-06-01T01:35:30;101801.20;;;10.93;70.93
62946;BME280;52164;52.212;-1.010;2023-06-01T01:37:56;101799.77;;;10.93;70.96
62946;BME280;52164;52.212;-1.010;2023-06-01T01:40:21;101799.37;;;10.91;70.92
62946;BME280;52164;52.212;-1.010;2023-06-01T01:42:46;101797.56;;;10.89;71.11
62946;BME280;52164;52.212;-1.010;2023-06-01T01:45:13;101800.02;;;10.88;70.95
62946;BME280;52164;52.212;-1.010;2023-06-01T01:48:11;101799.12;;;10.87;71.16
62946;BME280;52164;52.212;-1.010;2023-06-01T01:50:26;101796.60;;;10.86;71.13
62946;BME280;52164;52.212;-1.010;2023-06-01T01:52:53;101799.41;;;10.84;71.15
62946;BME280;52164;52.212;-1.010;2023-06-01T01:55:19;101793.31;;;10.82;71.21
62946;BME280;52164;52.212;-1.010;2023-06-01T01:57:48;101796.83;;;10.80;71.24
62946;BME280;52164;52.212;-1.010;2023-06-01T02:00:15;101794.83;;;10.78;71.15
62946;BME280;52164;52.212;-1.010;2023-06-01T02:02:40;101797.64;;;10.75;71.30
62946;BME280;52164;52.212;-1.010;2023-06-01T02:05:06;101797.94;;;10.72;71.44
62946;BME280;52164;52.212;-1.010;2023-06-01T02:07:31;101796.61;;;10.69;71.32
62946;BME280;52164;52.212;-1.010;2023-06-01T02:09:59;101795.86;;;10.67;71.31
62946;BME280;52164;52.212;-1.010;2023-06-01T02:12:25;101790.09;;;10.64;71.35
62946;BME280;52164;52.212;-1.010;2023-06-01T02:14:50;101790.80;;;10.63;71.30
62946;BME280;52164;52.212;-1.010;2023-06-01T02:17:15;101790.06;;;10.62;71.25
62946;BME280;52164;52.212;-1.010;2023-06-01T02:19:42;101788.90;;;10.58;71.24
62946;BME280;52164;52.212;-1.010;2023-06-01T02:22:07;101790.62;;;10.55;71.28
62946;BME280;52164;52.212;-1.010;2023-06-01T02:24:32;101789.34;;;10.53;70.97
62946;BME280;52164;52.212;-1.010;2023-06-01T02:26:58;101790.70;;;10.50;71.17
62946;BME280;52164;52.212;-1.010;2023-06-01T02:29:23;101790.51;;;10.49;71.09
62946;BME280;52164;52.212;-1.010;2023-06-01T02:31:48;101783.53;;;10.48;71.14
62946;BME280;52164;52.212;-1.010;2023-06-01T02:34:15;101788.16;;;10.48;70.96
62946;BME280;52164;52.212;-1.010;2023-06-01T02:36:45;101787.96;;;10.47;71.06
62946;BME280;52164;52.212;-1.010;2023-06-01T02:39:12;101784.58;;;10.47;71.01
62946;BME280;52164;52.212;-1.010;2023-06-01T02:41:42;101779.40;;;10.48;71.02
62946;BME280;52164;52.212;-1.010;2023-06-01T02:44:07;101781.23;;;10.49;70.89
62946;BME280;52164;52.212;-1.010;2023-06-01T02:46:32;101779.28;;;10.50;70.87
62946;BME280;52164;52.212;-1.010;2023-06-01T02:48:58;101786.09;;;10.52;70.68
62946;BME280;52164;52.212;-1.010;2023-06-01T02:51:23;101785.46;;;10.54;70.78
62946;BME280;52164;52.212;-1.010;2023-06-01T02:53:48;101782.09;;;10.56;70.65
62946;BME280;52164;52.212;-1.010;2023-06-01T02:56:14;101784.11;;;10.59;70.73
62946;BME280;52164;52.212;-1.010;2023-06-01T02:58:39;101782.92;;;10.63;70.51
62946;BME280;52164;52.212;-1.010;2023-06-01T03:01:06;101776.00;;;10.65;70.65
62946;BME280;52164;52.212;-1.010;2023-06-01T03:03:32;101773.50;;;10.65;70.36
62946;BME280;52164;52.212;-1.010;2023-06-01T03:05:58;101770.65;;;10.66;70.17
62946;BME280;52164;52.212;-1.010;2023-06-01T03:08:23;101771.02;;;10.65;70.27
62946;BME280;52164;52.212;-1.010;2023-06-01T03:10:49;101769.59;;;10.65;70.35
62946;BME280;52164;52.212;-1.010;2023-06-01T03:13:15;101767.80;;;10.65;70.35
62946;BME280;52164;52.212;-1.010;2023-06-01T03:15:40;101767.75;;;10.62;69.99
62946;BME280;52164;52.212;-1.010;2023-06-01T03:18:06;101768.80;;;10.62;70.24
62946;BME280;52164;52.212;-1.010;2023-06-01T03:20:32;101763.20;;;10.59;70.40
62946;BME280;52164;52.212;-1.010;2023-06-01T03:22:57;101764.41;;;10.56;70.29
62946;BME280;52164;52.212;-1.010;2023-06-01T03:25:22;101762.59;;;10.54;70.37
62946;BME280;52164;52.212;-1.010;2023-06-01T03:27:50;101765.39;;;10.52;70.08
62946;BME280;52164;52.212;-1.010;2023-06-01T03:30:15;101767.48;;;10.49;70.20
62946;BME280;52164;52.212;-1.010;2023-06-01T03:32:40;101768.87;;;10.47;70.32
62946;BME280;52164;52.212;-1.010;2023-06-01T03:35:06;101769.00;;;10.45;70.46
62946;BME280;52164;52.212;-1.010;2023-06-01T03:37:37;101768.08;;;10.43;70.61
62946;BME280;52164;52.212;-1.010;2023-06-01T03:40:03;101766.80;;;10.42;70.43
62946;BME280;52164;52.212;-1.010;2023-06-01T03:42:36;101765.01;;;10.41;70.83
62946;BME280;52164;52.212;-1.010;2023-06-01T03:45:02;101767.48;;;10.41;70.81
62946;BME280;52164;52.212;-1.010;2023-06-01T03:47:29;101768.55;;;10.40;70.67
62946;BME280;52164;52.212;-1.010;2023-06-01T03:49:55;101768.73;;;10.40;70.62
62946;BME280;52164;52.212;-1.010;2023-06-01T03:52:20;101764.29;;;10.41;70.77
62946;BME280;52164;52.212;-1.010;2023-06-01T03:54:45;101764.83;;;10.41;70.58
62946;BME280;52164;52.212;-1.010;2023-06-01T03:57:11;101762.80;;;10.38;70.55
62946;BME280;52164;52.212;-1.010;2023-06-01T03:59:36;101761.02;;;10.38;70.52
62946;BME280;52164;52.212;-1.010;2023-06-01T04:02:01;101756.90;;;10.38;70.38
62946;BME280;52164;52.212;-1.010;2023-06-01T04:04:28;101758.16;;;10.38;70.49
62946;BME280;52164;52.212;-1.010;2023-06-01T04:06:54;101755.34;;;10.40;70.57
62946;BME280;52164;52.212;-1.010;2023-06-01T04:09:19;101754.66;;;10.42;70.49
62946;BME280;52164;52.212;-1.010;2023-06-01T04:11:46;101752.55;;;10.43;70.49
62946;BME280;52164;52.212;-1.010;2023-06-01T04:14:11;101752.95;;;10.45;70.30
62946;BME280;52164;52.212;-1.010;2023-06-01T04:16:37;101756.54;;;10.47;70.31
62946;BME280;52164;52.212;-1.010;2023-06-01T04:19:02;101753.73;;;10.49;70.28
62946;BME280;52164;52.212;-1.010;2023-06-01T04:21:28;101756.11;;;10.52;70.30
62946;BME280;52164;52.212;-1.010;2023-06-01T04:23:53;101760.63;;;10.54;70.47
62946;BME280;52164;52.212;-1.010;2023-06-01T04:26:18;101761.04;;;10.57;70.37
62946;BME280;52164;52.212;-1.010;2023-06-01T04:28:44;101761.99;;;10.61;70.66
62946;BME280;52164;52.212;-1.010;2023-06-01T04:31:11;101760.60;;;10.62;70.34
62946;BME280;52164;52.212;-1.010;2023-06-01T04:33:42;101761.14;;;10.62;70.35
62946;BME280;52164;52.212;-1.010;2023-06-01T04:36:10;101760.08;;;10.63;70.26
62946;BME280;52164;52.212;-1.010;2023-06-01T04:38:40;101756.17;;;10.64;70.06
62946;BME280;52164;52.212;-1.010;2023-06-01T04:41:07;101755.13;;;10.65;70.13
62946;BME280;52164;52.212;-1.010;2023-06-01T04:43:32;101748.70;;;10.65;70.05
62946;BME280;52164;52.212;-1.010;2023-06-01T04:45:57;101746.38;;;10.65;70.31
62946;BME280;52164;52.212;-1.010;2023-06-01T04:48:28;101744.08;;;10.66;70.27
62946;BME280;52164;52.212;-1.010;2023-06-01T04:50:55;101737.10;;;10.66;70.20
62946;BME280;52164;52.212;-1.010;2023-06-01T04:53:22;101739.25;;;10.66;70.34
62946;BME280;52164;52.212;-1.010;2023-06-01T04:55:47;101739.82;;;10.68;70.34
62946;BME280;52164;52.212;-1.010;2023-06-01T04:58:13;101743.05;;;10.68;70.33
62946;BME280;52164;52.212;-1.010;2023-06-01T05:00:38;101749.88;;;10.70;70.51
62946;BME280;52164;52.212;-1.010;2023-06-01T05:03:05;101746.30;;;10.71;70.45
62946;BME280;52164;52.212;-1.010;2023-06-01T05:05:30;101748.63;;;10.71;70.55
62946;BME280;52164;52.212;-1.010;2023-06-01T05:07:55;101748.28;;;10.71;70.57
62946;BME280;52164;52.212;-1.010;2023-06-01T05:10:20;101746.46;;;10.69;70.55
62946;BME280;52164;52.212;-1.010;2023-06-01T05:12:46;101749.34;;;10.70;70.68
62946;BME280;52164;52.212;-1.010;2023-06-01T05:15:11;101751.13;;;10.71;70.71
62946;BME280;52164;52.212;-1.010;2023-06-01T05:17:36;101752.21;;;10.72;70.59
62946;BME280;52164;52.212;-1.010;2023-06-01T05:20:03;101749.38;;;10.72;70.66
62946;BME280;52164;52.212;-1.010;2023-06-01T05:22:30;101750.65;;;10.74;70.67
62946;BME280;52164;52.212;-1.010;2023-06-01T05:24:55;101750.66;;;10.74;70.54
62946;BME280;52164;52.212;-1.010;2023-06-01T05:27:21;101754.61;;;10.75;70.38
62946;BME280;52164;52.212;-1.010;2023-06-01T05:29:46;101753.73;;;10.76;70.20
62946;BME280;52164;52.212;-1.010;2023-06-01T05:32:12;101756.20;;;10.74;69.91
62946;BME280;52164;52.212;-1.010;2023-06-01T05:34:37;101754.39;;;10.73;69.99
62946;BME280;52164;52.212;-1.010;2023-06-01T05:37:02;101755.30;;;10.74;70.03
62946;BME280;52164;52.212;-1.010;2023-06-01T05:39:29;101759.63;;;10.77;69.80
62946;BME280;52164;52.212;-1.010;2023-06-01T05:41:54;101750.77;;;10.80;69.45
62946;BME280;52164;52.212;-1.010;2023-06-01T05:44:23;101748.15;;;10.84;69.47
62946;BME280;52164;52.212;-1.010;2023-06-01T05:46:48;101746.11;;;10.88;69.29
62946;BME280;52164;52.212;-1.010;2023-06-01T05:49:14;101741.91;;;10.94;69.37
62946;BME280;52164;52.212;-1.010;2023-06-01T05:51:39;101741.13;;;11.00;68.97
62946;BME280;52164;52.212;-1.010;2023-06-01T05:54:05;101741.77;;;11.07;68.96
62946;BME280;52164;52.212;-1.010;2023-06-01T05:56:30;101739.39;;;11.13;68.94
62946;BME280;52164;52.212;-1.010;2023-06-01T05:58:56;101736.59;;;11.17;68.64
62946;BME280;52164;52.212;-1.010;2023-06-01T06:01:21;101737.06;;;11.23;68.94
62946;BME280;52164;52.212;-1.010;2023-06-01T06:03:47;101737.88;;;11.28;68.80
62946;BME280;52164;52.212;-1.010;2023-06-01T06:06:12;101736.52;;;11.34;68.63
62946;BME280;52164;52.212;-1.010;2023-06-01T06:08:38;101737.30;;;11.38;68.55
62946;BME280;52164;52.212;-1.010;2023-06-01T06:11:03;101735.02;;;11.39;68.59
62946;BME280;52164;52.212;-1.010;2023-06-01T06:13:28;101738.80;;;11.42;68.50
62946;BME280;52164;52.212;-1.010;2023-06-01T06:15:54;101734.34;;;11.42;68.56
62946;BME280;52164;52.212;-1.010;2023-06-01T06:18:20;101734.55;;;11.44;68.32
62946;BME280;52164;52.212;-1.010;2023-06-01T06:20:46;101735.63;;;11.45;68.21
62946;BME280;52164;52.212;-1.010;2023-06-01T06:23:11;101735.63;;;11.45;68.13
62946;BME280;52164;52.212;-1.010;2023-06-01T06:25:38;101737.27;;;11.46;68.23
62946;BME280;52164;52.212;-1.010;2023-06-01T06:28:05;101737.81;;;11.48;68.08
62946;BME280;52164;52.212;-1.010;2023-06-01T06:30:30;101737.33;;;11.51;68.02
62946;BME280;52164;52.212;-1.010;2023-06-01T06:32:55;101740.22;;;11.52;68.32
62946;BME280;52164;52.212;-1.010;2023-06-01T06:35:21;101743.12;;;11.55;68.13
62946;BME280;52164;52.212;-1.010;2023-06-01T06:37:46;101745.64;;;11.56;68.15
62946;BME280;52164;52.212;-1.010;2023-06-01T06:40:14;101745.48;;;11.56;67.99
62946;BME280;52164;52.212;-1.010;2023-06-01T06:42:39;101741.55;;;11.57;67.94
62946;BME280;52164;52.212;-1.010;2023-06-01T06:45:05;101744.06;;;11.58;67.86
62946;BME280;52164;52.212;-1.010;2023-06-01T06:47:31;101742.66;;;11.60;67.78
62946;BME280;52164;52.212;-1.010;2023-06-01T06:49:56;101743.45;;;11.64;67.87
62946;BME280;52164;52.212;-1.010;2023-06-01T06:52:22;101739.21;;;11.68;67.78
62946;BME280;52164;52.212;-1.010;2023-06-01T06:54:47;101733.36;;;11.72;67.56
62946;BME280;52164;52.212;-1.010;2023-06-01T06:57:13;101735.52;;;11.73;67.33
62946;BME280;52164;52.212;-1.010;2023-06-01T06:59:38;101737.16;;;11.75;67.45
62946;BME280;52164;52.212;-1.010;2023-06-01T07:02:03;101738.98;;;11.77;67.08
62946;BME280;52164;52.212;-1.010;2023-06-01T07:04:29;101739.88;;;11.77;67.13
62946;BME280;52164;52.212;-1.010;2023-06-01T07:06:54;101739.73;;;11.79;67.22
62946;BME280;52164;52.212;-1.010;2023-06-01T07:09:19;101740.14;;;11.82;67.31
62946;BME280;52164;52.212;-1.010;2023-06-01T07:11:45;101735.89;;;11.87;67.39
62946;BME280;52164;52.212;-1.010;2023-06-01T07:14:12;101734.17;;;11.92;67.32
62946;BME280;52164;52.212;-1.010;2023-06-01T07:16:38;101736.23;;;11.95;67.55
62946;BME280;52164;52.212;-1.010;2023-06-01T07:19:03;101738.42;;;11.98;67.31
62946;BME280;52164;52.212;-1.010;2023-06-01T07:21:28;101744.38;;;12.02;67.33
62946;BME280;52164;52.212;-1.010;2023-06-01T07:23:54;101739.61;;;12.06;67.37
62946;BME280;52164;52.212;-1.010;2023-06-01T07:26:19;101743.59;;;12.10;66.98
62946;BME280;52164;52.212;-1.010;2023-06-01T07:28:45;101743.80;;;12.13;67.19
62946;BME280;52164;52.212;-1.010;2023-06-01T07:31:11;101746.90;;;12.18;67.15
62946;BME280;52164;52.212;-1.010;2023-06-01T07:33:36;101745.55;;;12.22;67.11
62946;BME280;52164;52.212;-1.010;2023-06-01T07:36:02;101747.77;;;12.27;66.86
62946;BME280;52164;52.212;-1.010;2023-06-01T07:38:28;101750.49;;;12.32;66.81
62946;BME280;52164;52.212;-1.010;2023-06-01T07:40:53;101753.09;;;12.39;66.89
62946;BME280;52164;52.212;-1.010;2023-06-01T07:43:19;101756.39;;;12.45;66.83
62946;BME280;52164;52.212;-1.010;2023-06-01T07:45:46;101757.55;;;12.53;66.52
62946;BME280;52164;52.212;-1.010;2023-06-01T07:48:11;101762.10;;;12.58;66.35
62946;BME280;52164;52.212;-1.010;2023-06-01T07:50:36;101767.14;;;12.61;65.97
62946;BME280;52164;52.212;-1.010;2023-06-01T07:53:02;101761.61;;;12.63;66.18
62946;BME280;52164;52.212;-1.010;2023-06-01T07:55:27;101759.69;;;12.67;65.90
62946;BME280;52164;52.212;-1.010;2023-06-01T07:57:53;101757.58;;;12.71;65.88
62946;BME280;52164;52.212;-1.010;2023-06-01T08:00:19;101757.95;;;12.73;65.90
62946;BME280;52164;52.212;-1.010;2023-06-01T08:02:44;101760.88;;;12.77;65.38
62946;BME280;52164;52.212;-1.010;2023-06-01T08:05:10;101759.30;;;12.81;65.33
62946;BME280;52164;52.212;-1.010;2023-06-01T08:07:37;101758.10;;;12.87;65.11
62946;BME280;52164;52.212;-1.010;2023-06-01T08:10:04;101756.02;;;12.92;65.00
62946;BME280;52164;52.212;-1.010;2023-06-01T08:12:30;101753.74;;;12.98;65.00
62946;BME280;52164;52.212;-1.010;2023-06-01T08:14:56;101757.02;;;13.04;64.67
62946;BME280;52164;52.212;-1.010;2023-06-01T08:17:22;101754.74;;;13.09;65.09
62946;BME280;52164;52.212;-1.010;2023-06-01T08:19:48;101757.86;;;13.16;64.88
62946;BME280;52164;52.212;-1.010;2023-06-01T08:22:13;101756.30;;;13.22;64.72
62946;BME280;52164;52.212;-1.010;2023-06-01T08:24:38;101755.27;;;13.27;64.46
62946;BME280;52164;52.212;-1.010;2023-06-01T08:27:15;101759.45;;;13.33;64.23
62946;BME280;52164;52.212;-1.010;2023-06-01T08:29:40;101759.33;;;13.36;64.09
62946;BME280;52164;52.212;-1.010;2023-06-01T08:32:06;101753.07;;;13.39;63.95
62946;BME280;52164;52.212;-1.010;2023-06-01T08:34:31;101750.23;;;13.43;63.63
62946;BME280;52164;52.212;-1.010;2023-06-01T08:36:56;101753.67;;;13.46;63.43
62946;BME280;52164;52.212;-1.010;2023-06-01T08:39:22;101751.35;;;13.48;63.49
62946;BME280;52164;52.212;-1.010;2023-06-01T08:41:58;101750.84;;;13.52;63.52
62946;BME280;52164;52.212;-1.010;2023-06-01T08:44:28;101750.52;;;13.57;63.33
62946;BME280;52164;52.212;-1.010;2023-06-01T08:46:59;101756.66;;;13.61;63.18
62946;BME280;52164;52.212;-1.010;2023-06-01T08:49:24;101755.41;;;13.64;63.16
62946;BME280;52164;52.212;-1.010;2023-06-01T08:51:51;101757.59;;;13.67;63.01
62946;BME280;52164;52.212;-1.010;2023-06-01T08:54:18;101757.61;;;13.72;62.86
62946;BME280;52164;52.212;-1.010;2023-06-01T08:56:44;101752.98;;;13.76;62.71
62946;BME280;52164;52.212;-1.010;2023-06-01T08:59:11;101753.90;;;13.80;62.73
62946;BME280;52164;52.212;-1.010;2023-06-01T09:01:36;101750.17;;;13.85;62.64
62946;BME280;52164;52.212;-1.010;2023-06-01T09:04:02;101750.89;;;13.86;62.28
62946;BME280;52164;52.212;-1.010;2023-06-01T09:06:28;101750.52;;;13.86;62.48
62946;BME280;52164;52.212;-1.010;2023-06-01T09:08:53;101754.15;;;13.90;62.44
62946;BME280;52164;52.212;-1.010;2023-06-01T09:11:19;101753.46;;;13.95;62.45
62946;BME280;52164;52.212;-1.010;2023-06-01T09:13:44;101749.52;;;13.97;62.11
62946;BME280;52164;52.212;-1.010;2023-06-01T09:16:09;101747.23;;;14.01;61.98
62946;BME280;52164;52.212;-1.010;2023-06-01T09:18:35;101749.05;;;14.06;61.98
62946;BME280;52164;52.212;-1.010;2023-06-01T09:21:16;101741.52;;;14.08;61.86
62946;BME280;52164;52.212;-1.010;2023-06-01T09:23:42;101747.65;;;14.16;61.70
62946;BME280;52164;52.212;-1.010;2023-06-01T09:26:09;101746.42;;;14.20;61.81
62946;BME280;52164;52.212;-1.010;2023-06-01T09:29:07;101741.60;;;14.25;61.56
62946;BME280;52164;52.212;-1.010;2023-06-01T09:31:36;101742.87;;;14.30;61.59
62946;BME280;52164;52.212;-1.010;2023-06-01T09:34:02;101744.32;;;14.33;61.44
62946;BME280;52164;52.212;-1.010;2023-06-01T09:36:27;101745.92;;;14.34;61.27
62946;BME280;52164;52.212;-1.010;2023-06-01T09:39:00;101747.39;;;14.38;61.05
62946;BME280;52164;52.212;-1.010;2023-06-01T09:41:26;101744.71;;;14.41;61.04
62946;BME280;52164;52.212;-1.010;2023-06-01T09:43:53;101742.21;;;14.49;61.01
62946;BME280;52164;52.212;-1.010;2023-06-01T09:46:19;101746.04;;;14.58;60.36
62946;BME280;52164;52.212;-1.010;2023-06-01T09:48:45;101746.63;;;14.66;60.42
62946;BME280;52164;52.212;-1.010;2023-06-01T09:51:25;101746.46;;;14.73;60.17
62946;BME280;52164;52.212;-1.010;2023-06-01T09:53:54;101743.44;;;14.86;59.76
62946;BME280;52164;52.212;-1.010;2023-06-01T09:56:19;101742.02;;;14.96;59.73
62946;BME280;52164;52.212;-1.010;2023-06-01T09:58:45;101741.48;;;15.10;59.61
62946;BME280;52164;52.212;-1.010;2023-06-01T10:01:11;101741.68;;;15.21;59.15
62946;BME280;52164;52.212;-1.010;2023-06-01T10:03:40;101737.01;;;15.30;59.22
62946;BME280;52164;52.212;-1.010;2023-06-01T10:06:06;101734.30;;;15.41;58.84
62946;BME280;52164;52.212;-1.010;2023-06-01T10:08:32;101737.54;;;15.49;58.78
62946;BME280;52164;52.212;-1.010;2023-06-01T10:10:58;101734.29;;;15.59;58.49
62946;BME280;52164;52.212;-1.010;2023-06-01T10:13:24;101733.92;;;15.66;58.23
62946;BME280;52164;52.212;-1.010;2023-06-01T10:15:53;101733.37;;;15.77;58.05
62946;BME280;52164;52.212;-1.010;2023-06-01T10:18:18;101731.04;;;15.86;57.54
62946;BME280;52164;52.212;-1.010;2023-06-01T10:20:43;101725.25;;;15.93;57.50
62946;BME280;52164;52.212;-1.010;2023-06-01T10:23:09;101727.94;;;16.01;57.54
62946;BME280;52164;52.212;-1.010;2023-06-01T10:25:37;101728.45;;;16.06;57.46
62946;BME280;52164;52.212;-1.010;2023-06-01T10:28:05;101726.45;;;16.13;57.35
62946;BME280;52164;52.212;-1.010;2023-06-01T10:30:32;101731.46;;;16.24;57.36
62946;BME280;52164;52.212;-1.010;2023-06-01T10:32:57;101727.27;;;16.31;56.73
62946;BME280;52164;52.212;-1.010;2023-06-01T10:40:35;101725.22;;;16.48;56.15
62946;BME280;52164;52.212;-1.010;2023-06-01T10:43:00;101723.90;;;16.58;56.12
62946;BME280;52164;52.212;-1.010;2023-06-01T10:45:37;101721.14;;;16.69;55.74
62946;BME280;52164;52.212;-1.010;2023-06-01T10:48:04;101719.48;;;16.75;55.80
62946;BME280;52164;52.212;-1.010;2023-06-01T10:50:33;101719.98;;;16.79;55.16
62946;BME280;52164;52.212;-1.010;2023-06-01T10:53:22;101721.58;;;16.86;54.89
62946;BME280;52164;52.212;-1.010;2023-06-01T10:55:45;101716.66;;;16.96;54.91
62946;BME280;52164;52.212;-1.010;2023-06-01T10:58:26;101718.41;;;17.04;54.65
62946;BME280;52164;52.212;-1.010;2023-06-01T11:00:52;101711.48;;;17.15;54.65
62946;BME280;52164;52.212;-1.010;2023-06-01T11:03:42;101714.42;;;17.29;54.54
62946;BME280;52164;52.212;-1.010;2023-06-01T11:06:06;101714.88;;;17.38;54.08
62946;BME280;52164;52.212;-1.010;2023-06-01T11:11:12;101716.35;;;17.55;53.61
62946;BME280;52164;52.212;-1.010;2023-06-01T11:13:38;101717.02;;;17.61;53.24
62946;BME280;52164;52.212;-1.010;2023-06-01T11:19:02;101714.16;;;17.73;53.52
62946;BME280;52164;52.212;-1.010;2023-06-01T11:21:20;101715.20;;;17.79;53.33
62946;BME280;52164;52.212;-1.010;2023-06-01T11:23:46;101712.23;;;17.88;53.10
62946;BME280;52164;52.212;-1.010;2023-06-01T11:26:13;101712.71;;;17.95;52.71
62946;BME280;52164;52.212;-1.010;2023-06-01T11:28:39;101705.73;;;18.03;52.48
62946;BME280;52164;52.212;-1.010;2023-06-01T11:31:08;101705.94;;;18.03;52.30
62946;BME280;52164;52.212;-1.010;2023-06-01T11:33:34;101711.64;;;18.09;52.54
62946;BME280;52164;52.212;-1.010;2023-06-01T11:36:00;101710.21;;;18.22;52.18
62946;BME280;52164;52.212;-1.010;2023-06-01T11:38:34;101706.62;;;18.34;51.89
62946;BME280;52164;52.212;-1.010;2023-06-01T11:41:00;101708.67;;;18.43;51.74
62946;BME280;52164;52.212;-1.010;2023-06-01T11:43:27;101710.40;;;18.49;51.64
62946;BME280;52164;52.212;-1.010;2023-06-01T11:46:01;101712.18;;;18.51;51.41
62946;BME280;52164;52.212;-1.010;2023-06-01T11:48:27;101710.53;;;18.53;51.12
62946;BME280;52164;52.212;-1.010;2023-06-01T11:50:53;101705.80;;;18.55;50.99
62946;BME280;52164;52.212;-1.010;2023-06-01T11:53:19;101706.91;;;18.66;51.02
62946;BME280;52164;52.212;-1.010;2023-06-01T11:55:53;101705.92;;;18.72;50.61
62946;BME280;52164;52.212;-1.010;2023-06-01T11:58:20;101711.52;;;18.73;50.75
62946;BME280;52164;52.212;-1.010;2023-06-01T12:00:45;101708.39;;;18.76;50.88
62946;BME280;52164;52.212;-1.010;2023-06-01T12:03:11;101711.20;;;18.81;50.84
62946;BME280;52164;52.212;-1.010;2023-06-01T12:05:38;101716.59;;;18.85;50.67
62946;BME280;52164;52.212;-1.010;2023-06-01T12:08:03;101715.32;;;18.86;50.65
62946;BME280;52164;52.212;-1.010;2023-06-01T12:10:29;101717.66;;;18.88;50.43
62946;BME280;52164;52.212;-1.010;2023-06-01T12:12:55;101716.90;;;18.90;50.84
62946;BME280;52164;52.212;-1.010;2023-06-01T12:15:21;101720.02;;;18.88;50.60
62946;BME280;52164;52.212;-1.010;2023-06-01T12:20:25;101717.43;;;18.90;50.49
62946;BME280;52164;52.212;-1.010;2023-06-01T12:22:50;101712.68;;;18.94;50.42
62946;BME280;52164;52.212;-1.010;2023-06-01T12:25:16;101712.92;;;19.01;49.99
62946;BME280;52164;52.212;-1.010;2023-06-01T12:27:41;101716.83;;;19.07;49.81
62946;BME280;52164;52.212;-1.010;2023-06-01T12:30:19;101717.50;;;19.08;49.90
62946;BME280;52164;52.212;-1.010;2023-06-01T12:32:45;101715.88;;;19.09;49.77
62946;BME280;52164;52.212;-1.010;2023-06-01T12:35:10;101720.34;;;19.01;49.62
62946;BME280;52164;52.212;-1.010;2023-06-01T12:37:35;101721.30;;;18.97;50.10
62946;BME280;52164;52.212;-1.010;2023-06-01T12:40:01;101727.73;;;19.03;49.98
62946;BME280;52164;52.212;-1.010;2023-06-01T12:42:41;101723.20;;;19.14;49.67
62946;BME280;52164;52.212;-1.010;2023-06-01T12:45:07;101721.63;;;19.22;49.30
62946;BME280;52164;52.212;-1.010;2023-06-01T12:47:35;101721.64;;;19.32;49.18
62946;BME280;52164;52.212;-1.010;2023-06-01T12:50:02;101718.52;;;19.45;48.93
62946;BME280;52164;52.212;-1.010;2023-06-01T12:52:30;101715.17;;;19.60;48.44
62946;BME280;52164;52.212;-1.010;2023-06-01T12:54:55;101711.13;;;19.73;48.33